Time;durP1;ratioP1;P1;durP2;ratioP2;P2;SDS_P1;SDS_P2;PMS_P1;PMS_P2;Temp;Humidity;BMP_temperature;BMP_pressure;BME280_temperature;BME280_humidity;BME280_pressure;Samples;Min_cycle;Max_cycle;Signal;HPM_P1;HPM_P2
2024/01/01 00:01:55;;;;;;;2.77;2.33;;;;;;;-6.68;100.00;98702.06;5041783;28;20055;-65
2024/01/01 00:04:24;;;;;;;3.67;2.53;;;;;;;-6.73;100.00;98704.06;5092366;28;20340;-65
2024/01/01 00:06:50;;;;;;;4.40;2.57;;;;;;;-6.86;100.00;98700.38;5058494;28;20048;-65
2024/01/01 00:09:16;;;;;;;3.50;2.70;;;;;;;-6.92;100.00;98709.28;5090512;27;20051;-65
2024/01/01 00:11:42;;;;;;;4.83;2.73;;;;;;;-6.94;100.00;98720.56;5081939;27;20527;-65
2024/01/01 00:14:09;;;;;;;3.03;2.60;;;;;;;-7.01;100.00;98730.31;5023966;28;20056;-65
2024/01/01 00:16:35;;;;;;;2.80;2.50;;;;;;;-7.07;100.00;98730.59;5040413;28;20056;-65
2024/01/01 00:19:01;;;;;;;4.53;2.50;;;;;;;-7.10;100.00;98736.75;5023799;28;20200;-65
2024/01/01 00:21:28;;;;;;;3.80;2.40;;;;;;;-7.08;100.00;98747.00;5090317;28;20153;-66
2024/01/01 00:23:57;;;;;;;2.83;2.40;;;;;;;-7.01;100.00;98730.31;5041555;28;20048;-66
2024/01/01 00:26:23;;;;;;;3.17;2.40;;;;;;;-7.04;100.00;98736.47;5057111;28;20047;-66
2024/01/01 00:28:56;;;;;;;7.47;3.53;;;;;;;-7.04;100.00;98748.53;5041151;28;20112;-65
2024/01/01 00:31:22;;;;;;;6.87;2.97;;;;;;;-7.01;100.00;98748.38;5039964;28;20036;-65
2024/01/01 00:33:49;;;;;;;3.83;2.63;;;;;;;-7.02;100.00;98742.41;5056725;28;20067;-65
2024/01/01 00:36:15;;;;;;;3.33;2.30;;;;;;;-7.04;100.00;98749.38;5040114;28;20036;-65
2024/01/01 00:38:41;;;;;;;3.40;2.43;;;;;;;-7.05;100.00;98749.44;5039718;28;20059;-65
2024/01/01 00:41:15;;;;;;;2.67;2.10;;;;;;;-6.95;100.00;98753.28;5039785;28;20105;-65
2024/01/01 00:43:43;;;;;;;2.63;1.80;;;;;;;-6.94;100.00;98756.69;5040049;28;20159;-66
2024/01/01 00:46:09;;;;;;;5.30;2.33;;;;;;;-6.90;100.00;98758.22;5127483;27;20083;-65
2024/01/01 00:48:35;;;;;;;3.90;2.20;;;;;;;-6.85;100.00;98746.75;5096887;27;20095;-65
2024/01/01 00:51:01;;;;;;;3.50;2.20;;;;;;;-6.86;100.00;98760.59;5097651;27;20039;-65
2024/01/01 00:53:27;;;;;;;4.37;2.33;;;;;;;-6.78;100.00;98770.53;5097618;28;20038;-65
2024/01/01 00:55:53;;;;;;;3.70;2.40;;;;;;;-6.83;100.00;98759.59;5097709;28;20138;-66
2024/01/01 00:58:19;;;;;;;2.90;2.40;;;;;;;-6.85;100.00;98764.84;5114891;28;20050;-65
2024/01/01 01:00:45;;;;;;;2.33;2.13;;;;;;;-6.86;100.00;98773.50;5097723;28;20043;-66
2024/01/01 01:03:11;;;;;;;3.60;2.20;;;;;;;-6.90;100.00;98771.94;5132157;27;20042;-65
2024/01/01 01:05:36;;;;;;;2.80;2.00;;;;;;;-6.91;100.00;98783.19;5098898;28;20058;-66
2024/01/01 01:08:02;;;;;;;3.37;2.20;;;;;;;-6.93;100.00;98787.56;5083660;27;20459;-64
2024/01/01 01:10:30;;;;;;;2.43;2.23;;;;;;;-6.96;100.00;98784.31;5085187;28;20047;-66
2024/01/01 01:12:55;;;;;;;4.10;2.20;;;;;;;-6.96;100.00;98792.06;5097736;28;20047;-64
2024/01/01 01:15:26;;;;;;;3.57;2.13;;;;;;;-6.82;100.00;98789.66;5114430;28;20096;-66
2024/01/01 01:17:51;;;;;;;2.45;2.10;;;;;;;-6.92;100.00;98791.84;5114000;28;20133;-66
2024/01/01 01:20:18;;;;;;;2.57;2.00;;;;;;;-6.85;100.00;98797.53;5114711;28;20534;-65
2024/01/01 01:22:44;;;;;;;2.93;2.13;;;;;;;-6.86;100.00;98795.88;5131629;27;20070;-66
2024/01/01 01:25:10;;;;;;;2.30;2.10;;;;;;;-6.81;100.00;98804.25;5097289;27;20484;-66
2024/01/01 01:27:38;;;;;;;4.10;2.47;;;;;;;-6.77;100.00;98813.50;5055977;28;20056;-65
2024/01/01 01:30:06;;;;;;;4.07;2.50;;;;;;;-6.83;100.00;98806.91;5040601;28;20384;-65
2024/01/01 01:32:32;;;;;;;3.40;2.20;;;;;;;-6.82;100.00;98818.88;5040198;28;20083;-65
2024/01/01 01:34:58;;;;;;;2.40;1.90;;;;;;;-6.81;100.00;98819.72;5040578;28;20158;-65
2024/01/01 01:37:23;;;;;;;2.53;2.00;;;;;;;-6.82;100.00;98815.47;5056375;28;20043;-66
2024/01/01 01:39:49;;;;;;;2.60;2.30;;;;;;;-6.81;100.00;98830.88;5056502;28;20048;-66
2024/01/01 01:42:15;;;;;;;4.97;2.33;;;;;;;-6.79;100.00;98823.06;5055943;28;20067;-65
2024/01/01 01:44:41;;;;;;;2.50;2.00;;;;;;;-6.83;100.00;98837.03;5023427;28;20067;-66
2024/01/01 01:47:07;;;;;;;2.70;2.00;;;;;;;-6.79;100.00;98825.63;5055699;28;20499;-66
2024/01/01 01:49:33;;;;;;;3.30;2.30;;;;;;;-6.76;100.00;98838.44;5039383;28;20105;-65
2024/01/01 01:52:03;;;;;;;3.30;2.37;;;;;;;-6.73;100.00;98836.53;5022934;28;20621;-65
2024/01/01 01:54:32;;;;;;;3.50;2.35;;;;;;;-6.79;100.00;98848.88;5016077;28;20045;-66
2024/01/01 01:56:57;;;;;;;2.80;2.13;;;;;;;-6.85;100.00;98850.00;4999805;28;20053;-65
2024/01/01 01:59:23;;;;;;;2.73;2.07;;;;;;;-6.84;100.00;98846.50;5036046;28;20066;-69
2024/01/01 02:01:50;;;;;;;3.37;2.10;;;;;;;-6.86;100.00;98870.72;5059771;28;20056;-65
2024/01/01 02:04:16;;;;;;;2.20;2.00;;;;;;;-6.86;100.00;98862.97;5042652;28;20040;-65
2024/01/01 02:06:42;;;;;;;3.63;2.43;;;;;;;-7.03;100.00;98861.16;5059531;28;20094;-65
2024/01/01 02:09:09;;;;;;;3.03;2.30;;;;;;;-7.02;100.00;98868.00;5059518;28;20112;-66
2024/01/01 02:11:34;;;;;;;2.43;1.93;;;;;;;-7.08;100.00;98870.84;5038915;28;20048;-65
2024/01/01 02:14:14;;;;;;;3.50;2.27;;;;;;;-6.93;100.00;98882.22;5039026;28;20484;-65
2024/01/01 02:16:40;;;;;;;3.10;2.37;;;;;;;-7.02;100.00;98881.72;5039024;28;20488;-65
2024/01/01 02:19:16;;;;;;;2.80;2.50;;;;;;;-6.89;100.00;98881.19;5006549;28;20059;-65
2024/01/01 02:21:42;;;;;;;2.87;2.17;;;;;;;-6.98;100.00;98895.34;5024442;28;20048;-66
2024/01/01 02:24:08;;;;;;;2.67;2.17;;;;;;;-6.99;100.00;98898.00;5023728;28;20055;-65
2024/01/01 02:26:34;;;;;;;2.40;2.20;;;;;;;-7.01;100.00;98885.97;5055591;28;20076;-66
2024/01/01 02:29:00;;;;;;;6.23;2.50;;;;;;;-7.05;100.00;98897.34;5005975;28;20487;-65
2024/01/01 02:31:26;;;;;;;2.40;2.20;;;;;;;-7.15;100.00;98895.25;5061861;28;20110;-66
2024/01/01 02:33:52;;;;;;;2.60;2.40;;;;;;;-7.08;100.00;98900.06;5058887;28;20185;-65
2024/01/01 02:36:18;;;;;;;2.40;2.13;;;;;;;-7.13;100.00;98906.31;5058873;28;20064;-65
2024/01/01 02:38:43;;;;;;;3.73;2.40;;;;;;;-7.12;100.00;98902.84;5025508;28;20503;-65
2024/01/01 02:41:09;;;;;;;3.00;2.30;;;;;;;-7.17;100.00;98908.22;5092188;28;20032;-65
2024/01/01 02:43:35;;;;;;;2.40;2.20;;;;;;;-7.25;100.00;98902.53;5079667;27;20055;-65
2024/01/01 02:46:01;;;;;;;3.50;2.30;;;;;;;-7.24;100.00;98903.38;5117669;27;20038;-65
2024/01/01 02:48:27;;;;;;;3.13;2.57;;;;;;;-7.24;100.00;98917.09;5134872;27;20043;-65
2024/01/01 02:50:53;;;;;;;2.53;2.23;;;;;;;-7.26;100.00;98915.50;5118351;27;20043;-65
2024/01/01 02:53:19;;;;;;;2.73;2.37;;;;;;;-7.31;100.00;98915.72;5117602;27;20047;-65
2024/01/01 02:55:45;;;;;;;2.10;1.90;;;;;;;-7.27;100.00;98921.56;5082847;27;20047;-65
2024/01/01 02:58:10;;;;;;;2.70;2.13;;;;;;;-7.25;100.00;98924.91;5116481;27;20061;-65
2024/01/01 03:00:36;;;;;;;4.17;2.00;;;;;;;-7.21;100.00;98929.06;5082946;27;20042;-65
2024/01/01 03:03:03;;;;;;;3.07;2.20;;;;;;;-7.21;100.00;98924.72;5099568;27;20039;-65
2024/01/01 03:05:29;;;;;;;2.47;2.17;;;;;;;-7.22;100.00;98923.06;5099467;27;20050;-65
2024/01/01 03:07:56;;;;;;;3.70;2.20;;;;;;;-7.17;100.00;98930.59;5099909;27;20047;-65
2024/01/01 03:10:21;;;;;;;3.60;2.20;;;;;;;-7.17;100.00;98940.91;5082674;27;20106;-65
2024/01/01 03:12:47;;;;;;;2.43;2.10;;;;;;;-7.24;100.00;98934.31;5116236;27;20143;-65
2024/01/01 03:15:13;;;;;;;3.53;2.13;;;;;;;-7.26;100.00;98944.69;5099880;27;20054;-65
2024/01/01 03:17:40;;;;;;;2.63;2.17;;;;;;;-7.26;100.00;98943.88;5099471;27;20049;-66
2024/01/01 03:20:06;;;;;;;2.87;2.20;;;;;;;-7.29;100.00;98952.56;5066177;27;20045;-65
2024/01/01 03:22:32;;;;;;;2.77;2.33;;;;;;;-7.30;100.00;98956.06;5099368;27;20389;-65
2024/01/01 03:24:58;;;;;;;2.73;2.13;;;;;;;-7.29;100.00;98968.03;5116271;27;20043;-69
2024/01/01 03:27:24;;;;;;;2.77;2.33;;;;;;;-7.25;100.00;98979.94;5116242;27;20047;-65
2024/01/01 03:29:50;;;;;;;5.07;2.47;;;;;;;-7.30;100.00;98975.84;5098604;27;20470;-66
2024/01/01 03:32:16;;;;;;;2.57;2.17;;;;;;;-7.26;100.00;98983.38;5133750;27;20067;-65
2024/01/01 03:34:42;;;;;;;2.90;2.40;;;;;;;-7.18;100.00;98990.84;5115852;27;20043;-65
2024/01/01 03:37:08;;;;;;;3.20;2.33;;;;;;;-7.26;100.00;98988.53;5133498;27;20086;-65
2024/01/01 03:39:34;;;;;;;2.27;2.07;;;;;;;-7.25;100.00;98982.50;5133098;27;20070;-65
2024/01/01 03:41:59;;;;;;;2.57;2.20;;;;;;;-7.25;100.00;98992.81;5082065;27;20091;-66
2024/01/01 03:44:25;;;;;;;2.63;2.17;;;;;;;-7.25;100.00;98985.09;5074177;28;20044;-65
2024/01/01 03:46:51;;;;;;;3.23;2.40;;;;;;;-7.24;100.00;98993.63;5074324;28;20075;-65
2024/01/01 03:49:16;;;;;;;2.20;1.93;;;;;;;-7.24;100.00;99002.22;5034174;28;20091;-65
2024/01/01 03:51:43;;;;;;;2.10;1.80;;;;;;;-7.25;100.00;99002.28;5017763;28;20053;-67
2024/01/01 03:54:08;;;;;;;2.53;2.00;;;;;;;-7.20;100.00;99003.78;5033923;28;20049;-66
2024/01/01 03:56:34;;;;;;;2.60;2.10;;;;;;;-7.19;100.00;99013.19;5034003;28;20045;-65
2024/01/01 03:59:02;;;;;;;3.03;2.30;;;;;;;-7.20;100.00;99018.41;5017665;28;20369;-68
2024/01/01 04:01:28;;;;;;;3.03;2.37;;;;;;;-7.24;100.00;99020.28;5034720;28;20067;-65
2024/01/01 04:04:00;;;;;;;2.63;2.10;;;;;;;-7.22;100.00;99023.66;4985528;28;20519;-65
2024/01/01 04:06:26;;;;;;;3.67;2.33;;;;;;;-7.21;100.00;99045.13;5035841;28;20525;-65
2024/01/01 04:08:52;;;;;;;3.30;2.27;;;;;;;-7.16;100.00;99038.00;5001304;28;20056;-65
2024/01/01 04:11:17;;;;;;;3.67;2.10;;;;;;;-7.18;100.00;99037.25;5017072;28;20037;-65
2024/01/01 04:13:43;;;;;;;2.30;2.10;;;;;;;-7.13;100.00;99043.91;5050514;28;20040;-65
2024/01/01 04:16:09;;;;;;;2.40;2.07;;;;;;;-7.09;100.00;99048.00;5050620;28;20133;-65
2024/01/01 04:18:35;;;;;;;2.17;1.97;;;;;;;-7.05;100.00;99044.41;5095446;28;20047;-65
2024/01/01 04:21:01;;;;;;;3.20;2.27;;;;;;;-7.01;100.00;99033.06;5095861;27;20050;-65
2024/01/01 04:23:27;;;;;;;2.67;2.10;;;;;;;-6.99;100.00;99045.06;5082632;27;20043;-65
2024/01/01 04:25:53;;;;;;;3.17;2.37;;;;;;;-6.94;100.00;99053.44;5100396;27;20135;-65
2024/01/01 04:28:19;;;;;;;3.13;2.23;;;;;;;-6.93;100.00;99061.13;5116656;27;20035;-65
2024/01/01 04:30:44;;;;;;;2.47;2.23;;;;;;;-6.93;100.00;99057.72;5100043;27;20424;-65
2024/01/01 04:33:11;;;;;;;3.33;2.30;;;;;;;-6.97;100.00;99056.16;5134445;27;20459;-65
2024/01/01 04:35:37;;;;;;;2.50;2.30;;;;;;;-6.90;100.00;99067.91;5117358;27;20072;-65
2024/01/01 04:38:03;;;;;;;2.10;1.90;;;;;;;-6.86;100.00;99059.13;5133287;27;20095;-67
2024/01/01 04:40:29;;;;;;;2.53;2.33;;;;;;;-6.81;100.00;99064.94;5099223;27;20043;-66
2024/01/01 04:42:55;;;;;;;2.93;2.17;;;;;;;-6.80;100.00;99053.69;5115414;27;20053;-65
2024/01/01 04:45:20;;;;;;;2.33;2.10;;;;;;;-6.84;100.00;99065.06;5098432;27;20335;-65
2024/01/01 04:47:46;;;;;;;3.43;2.47;;;;;;;-6.88;100.00;99074.69;5090079;28;20047;-65
2024/01/01 04:50:12;;;;;;;3.43;2.57;;;;;;;-6.90;100.00;99078.22;5057295;28;20054;-66
2024/01/01 04:52:38;;;;;;;3.13;2.20;;;;;;;-6.89;100.00;99085.91;5056417;28;20130;-65
2024/01/01 04:55:04;;;;;;;2.90;2.23;;;;;;;-6.87;100.00;99089.25;5039582;28;20051;-67
2024/01/01 04:57:30;;;;;;;2.90;2.23;;;;;;;-6.86;100.00;99079.78;5073126;28;20056;-65
2024/01/01 04:59:56;;;;;;;3.10;2.40;;;;;;;-6.86;100.00;99084.94;5039609;28;20081;-68
2024/01/01 05:02:21;;;;;;;2.37;2.17;;;;;;;-6.82;100.00;99082.16;5039368;28;20101;-65
2024/01/01 05:04:47;;;;;;;2.20;2.00;;;;;;;-6.77;100.00;99093.13;5039811;28;20044;-65
2024/01/01 05:07:13;;;;;;;2.30;2.07;;;;;;;-6.77;100.00;99097.44;5072810;28;20499;-66
2024/01/01 05:09:42;;;;;;;2.77;2.27;;;;;;;-6.69;100.00;99105.72;5039548;28;20113;-66
2024/01/01 05:12:08;;;;;;;2.50;2.17;;;;;;;-6.77;100.00;99106.03;5056052;28;20040;-65
2024/01/01 05:14:37;;;;;;;2.50;2.30;;;;;;;-6.65;100.00;99099.50;5072885;28;20048;-65
2024/01/01 05:17:04;;;;;;;2.40;2.10;;;;;;;-6.73;100.00;99109.34;5072935;28;20036;-66
2024/01/01 05:19:30;;;;;;;2.60;2.40;;;;;;;-6.72;100.00;99121.34;5107186;28;20092;-66
2024/01/01 05:21:56;;;;;;;2.73;2.30;;;;;;;-6.71;100.00;99107.50;5115217;28;20342;-65
2024/01/01 05:24:21;;;;;;;3.13;2.30;;;;;;;-6.69;100.00;99113.47;5098383;28;20130;-66
2024/01/01 05:26:47;;;;;;;2.63;2.20;;;;;;;-6.67;100.00;99114.25;5098373;28;20066;-65
2024/01/01 05:29:13;;;;;;;2.57;2.37;;;;;;;-6.63;100.00;99113.19;5116864;28;20455;-65
2024/01/01 05:31:38;;;;;;;2.73;2.33;;;;;;;-6.59;100.00;99118.16;5116894;28;20075;-66
2024/01/01 05:34:05;;;;;;;3.40;2.57;;;;;;;-6.59;100.00;99110.41;5099143;27;20525;-65
2024/01/01 05:36:31;;;;;;;2.63;2.17;;;;;;;-6.57;100.00;99120.69;5102265;27;20027;-65
2024/01/01 05:38:57;;;;;;;2.73;2.37;;;;;;;-6.58;100.00;99132.75;5135363;27;20047;-66
2024/01/01 05:41:22;;;;;;;3.07;2.40;;;;;;;-6.56;100.00;99124.94;5096897;28;20062;-65
2024/01/01 05:43:49;;;;;;;2.53;2.33;;;;;;;-6.52;100.00;99124.75;5079801;28;20047;-66
2024/01/01 05:46:14;;;;;;;2.40;1.90;;;;;;;-6.44;100.00;99122.66;5063528;28;20039;-66
2024/01/01 05:48:40;;;;;;;2.87;2.30;;;;;;;-6.39;100.00;99132.81;5097083;28;20134;-65
2024/01/01 05:51:06;;;;;;;3.83;2.33;;;;;;;-6.40;100.00;99119.06;5096921;28;20469;-65
2024/01/01 05:53:31;;;;;;;2.53;2.07;;;;;;;-6.36;100.00;99118.00;5080028;28;20107;-65
2024/01/01 05:55:57;;;;;;;2.47;2.00;;;;;;;-6.36;100.00;99125.75;5063328;28;20153;-65
2024/01/01 05:58:23;;;;;;;2.40;2.20;;;;;;;-6.32;100.00;99129.06;5079895;28;20101;-65
2024/01/01 06:00:49;;;;;;;3.70;2.40;;;;;;;-6.33;100.00;99125.63;5079544;28;20575;-65
2024/01/01 06:03:14;;;;;;;4.30;2.20;;;;;;;-6.32;100.00;99124.72;5079560;28;20039;-65
2024/01/01 06:05:40;;;;;;;2.77;2.50;;;;;;;-6.29;100.00;99127.19;5079439;28;20471;-66
2024/01/01 06:08:06;;;;;;;2.73;2.43;;;;;;;-6.28;100.00;99130.59;5097053;28;20082;-65
2024/01/01 06:10:32;;;;;;;2.30;2.00;;;;;;;-6.27;100.00;99127.13;5062886;28;20046;-65
2024/01/01 06:12:58;;;;;;;2.20;2.00;;;;;;;-6.26;100.00;99134.81;5103169;28;20494;-65
2024/01/01 06:15:25;;;;;;;2.47;2.13;;;;;;;-6.23;100.00;99152.75;5096460;28;20070;-65
2024/01/01 06:17:51;;;;;;;2.90;2.17;;;;;;;-6.29;100.00;99137.53;5096108;28;20505;-65
2024/01/01 06:20:16;;;;;;;3.00;2.70;;;;;;;-6.24;100.00;99148.47;5062390;28;20044;-65
2024/01/01 06:22:43;;;;;;;2.57;2.13;;;;;;;-6.26;100.00;99144.28;5096119;28;20044;-67
2024/01/01 06:25:10;;;;;;;3.13;2.30;;;;;;;-6.25;100.00;99151.97;5062452;28;20055;-66
2024/01/01 06:27:37;;;;;;;2.10;1.87;;;;;;;-6.17;100.00;99154.22;5046259;28;20151;-65
2024/01/01 06:30:04;;;;;;;3.67;2.10;;;;;;;-6.17;100.00;99162.84;5062408;28;20036;-64
2024/01/01 06:32:30;;;;;;;2.57;2.30;;;;;;;-6.19;100.00;99164.63;5062513;28;20044;-65
2024/01/01 06:34:56;;;;;;;3.00;2.40;;;;;;;-6.22;100.00;99163.91;5045710;28;20192;-66
2024/01/01 06:37:22;;;;;;;4.43;2.80;;;;;;;-6.24;100.00;99166.56;5062348;28;20071;-65
2024/01/01 06:39:48;;;;;;;2.97;2.40;;;;;;;-6.20;100.00;99162.97;5062076;28;20043;-65
2024/01/01 06:42:15;;;;;;;4.13;2.47;;;;;;;-6.16;100.00;99161.06;5078687;28;20486;-65
2024/01/01 06:44:41;;;;;;;3.17;2.33;;;;;;;-6.17;100.00;99164.56;5061849;28;20628;-65
2024/01/01 06:47:07;;;;;;;3.90;2.20;;;;;;;-6.18;100.00;99163.72;5078100;28;20091;-65
2024/01/01 06:49:33;;;;;;;2.10;1.90;;;;;;;-6.09;100.00;99165.06;5065296;27;20043;-65
2024/01/01 06:51:59;;;;;;;2.60;2.10;;;;;;;-6.08;100.00;99177.09;5099571;27;20496;-65
2024/01/01 06:54:25;;;;;;;2.73;1.90;;;;;;;-6.03;100.00;99170.81;5133732;27;20042;-65
2024/01/01 06:56:51;;;;;;;2.60;2.30;;;;;;;-5.91;100.00;99174.59;5082811;27;20057;-66
2024/01/01 06:59:17;;;;;;;2.83;1.97;;;;;;;-5.85;100.00;99163.97;5099621;27;20050;-65
2024/01/01 07:01:43;;;;;;;2.93;2.30;;;;;;;-5.83;100.00;99167.34;5116959;27;20034;-65
2024/01/01 07:04:10;;;;;;;2.80;2.47;;;;;;;-5.74;100.00;99185.84;5099894;27;20076;-66
2024/01/01 07:06:37;;;;;;;3.03;2.30;;;;;;;-5.70;100.00;99173.59;5099693;27;20058;-66
2024/01/01 07:09:03;;;;;;;2.43;2.20;;;;;;;-5.77;100.00;99178.22;5083353;27;20058;-65
2024/01/01 07:11:29;;;;;;;2.77;2.27;;;;;;;-5.79;100.00;99181.78;5116399;27;20043;-65
2024/01/01 07:13:55;;;;;;;3.43;2.30;;;;;;;-5.73;100.00;99186.66;5116270;27;20462;-66
2024/01/01 07:16:20;;;;;;;2.70;2.07;;;;;;;-5.72;100.00;99196.13;5082292;27;20047;-65
2024/01/01 07:18:47;;;;;;;2.83;2.17;;;;;;;-5.67;100.00;99202.75;5074393;28;20060;-65
2024/01/01 07:21:12;;;;;;;6.10;2.20;;;;;;;-5.58;100.00;99202.34;5057522;28;20129;-66
2024/01/01 07:23:38;;;;;;;2.67;2.20;;;;;;;-5.47;100.00;99200.09;5041176;28;20048;-65
2024/01/01 07:26:04;;;;;;;2.90;2.17;;;;;;;-5.36;100.00;99202.19;5057384;28;20044;-65
2024/01/01 07:28:30;;;;;;;2.43;2.13;;;;;;;-5.27;100.00;99205.22;5040737;28;20040;-65
2024/01/01 07:30:57;;;;;;;2.43;2.10;;;;;;;-5.23;100.00;99193.78;5057239;28;20097;-65
2024/01/01 07:33:23;;;;;;;3.07;2.40;;;;;;;-5.18;100.00;99196.16;5057619;28;20079;-66
2024/01/01 07:35:48;;;;;;;4.70;2.37;;;;;;;-5.18;100.00;99211.69;5090859;28;20075;-65
2024/01/01 07:38:14;;;;;;;3.07;2.47;;;;;;;-5.41;100.00;99207.59;5024156;28;20068;-66
2024/01/01 07:40:41;;;;;;;2.83;2.00;;;;;;;-5.34;100.00;99208.16;5057319;28;20048;-65
2024/01/01 07:43:06;;;;;;;3.27;2.57;;;;;;;-5.30;100.00;99210.53;5024269;28;20412;-65
2024/01/01 07:45:32;;;;;;;2.30;2.00;;;;;;;-5.23;100.00;99208.50;5057354;28;20435;-65
2024/01/01 07:47:58;;;;;;;3.17;2.00;;;;;;;-5.21;100.00;99210.09;5041005;28;20546;-65
2024/01/01 07:50:24;;;;;;;2.40;2.20;;;;;;;-5.18;100.00;99209.97;5024104;28;20158;-68
2024/01/01 07:52:51;;;;;;;2.40;2.20;;;;;;;-5.12;100.00;99218.34;5057414;28;20096;-65
2024/01/01 07:55:18;;;;;;;2.87;2.33;;;;;;;-5.09;100.00;99221.66;5046740;27;20552;-65
2024/01/01 07:57:46;;;;;;;2.90;2.27;;;;;;;-5.06;100.00;99228.41;5097894;27;20047;-65
2024/01/01 08:00:12;;;;;;;3.20;2.53;;;;;;;-5.03;100.00;99226.53;5098998;27;20054;-66
2024/01/01 08:02:38;;;;;;;3.37;2.27;;;;;;;-4.95;100.00;99234.75;5098260;27;20144;-65
2024/01/01 08:05:05;;;;;;;3.50;2.40;;;;;;;-4.87;100.00;99234.44;5098283;27;20135;-66
2024/01/01 08:07:30;;;;;;;2.57;2.10;;;;;;;-4.82;100.00;99222.94;5115060;27;20046;-65
2024/01/01 08:09:56;;;;;;;3.47;2.53;;;;;;;-4.79;100.00;99230.53;5097768;27;20051;-65
2024/01/01 08:12:22;;;;;;;2.27;2.07;;;;;;;-4.60;100.00;99227.91;5081548;27;20035;-67
2024/01/01 08:14:48;;;;;;;3.13;2.20;;;;;;;-4.52;100.00;99236.97;5115249;27;20474;-65
2024/01/01 08:17:13;;;;;;;2.50;2.20;;;;;;;-4.40;100.00;99245.91;5098233;27;20418;-66
2024/01/01 08:19:39;;;;;;;2.73;2.33;;;;;;;-4.17;100.00;99236.09;5114996;27;20043;-66
2024/01/01 08:22:05;;;;;;;2.10;1.90;;;;;;;-4.00;100.00;99235.25;5097736;27;20038;-66
2024/01/01 08:24:31;;;;;;;3.83;2.50;;;;;;;-3.97;100.00;99222.97;5097915;27;20478;-65
2024/01/01 08:26:57;;;;;;;2.23;2.03;;;;;;;-3.73;100.00;99226.88;5115317;27;20046;-65
2024/01/01 08:29:23;;;;;;;4.40;2.30;;;;;;;-3.39;100.00;99220.75;5132019;27;20430;-65
2024/01/01 08:31:49;;;;;;;2.87;2.40;;;;;;;-3.01;100.00;99231.69;5115032;27;20100;-66
2024/01/01 08:34:15;;;;;;;2.20;2.00;;;;;;;-2.66;98.77;99226.19;5098120;27;20436;-69
2024/01/01 08:36:41;;;;;;;3.63;2.20;;;;;;;-2.36;95.78;99223.59;5098031;27;20531;-65
2024/01/01 08:39:09;;;;;;;2.40;2.20;;;;;;;-2.20;92.48;99224.41;5097813;27;20047;-66
2024/01/01 08:41:44;;;;;;;2.80;2.30;;;;;;;-1.80;88.19;99221.13;5081196;27;20359;-65
2024/01/01 08:44:10;;;;;;;2.47;2.07;;;;;;;-1.44;86.19;99212.84;5097913;27;20038;-65
2024/01/01 08:46:36;;;;;;;2.97;2.30;;;;;;;-1.31;82.00;99219.00;5080958;27;20285;-65
2024/01/01 08:49:01;;;;;;;2.67;2.20;;;;;;;-1.18;79.20;99220.75;5097668;27;20047;-65
2024/01/01 08:51:27;;;;;;;3.33;2.83;;;;;;;-0.81;77.34;99225.31;5097337;27;20091;-66
2024/01/01 08:53:53;;;;;;;2.93;2.40;;;;;;;0.51;73.05;99231.22;5080465;27;20034;-66
2024/01/01 08:56:18;;;;;;;3.53;2.77;;;;;;;1.84;69.46;99224.22;5114732;27;20051;-66
2024/01/01 08:58:44;;;;;;;2.60;2.27;;;;;;;2.81;63.44;99227.16;5114966;27;20054;-66
2024/01/01 09:01:10;;;;;;;3.53;3.23;;;;;;;4.47;57.54;99218.69;5097465;28;20533;-66
2024/01/01 09:03:38;;;;;;;4.53;3.23;;;;;;;6.30;49.55;99238.22;5097456;28;20043;-66
2024/01/01 09:06:04;;;;;;;3.80;3.50;;;;;;;8.39;42.96;99245.03;5097321;28;20054;-66
2024/01/01 09:08:30;;;;;;;4.40;2.83;;;;;;;10.40;36.67;99245.84;5097170;27;20047;-66
2024/01/01 09:10:57;;;;;;;2.80;2.60;;;;;;;11.86;31.93;99247.91;5081074;28;20043;-66
2024/01/01 09:13:23;;;;;;;2.80;2.53;;;;;;;12.79;29.29;99252.81;5114547;28;20478;-66
2024/01/01 09:15:49;;;;;;;2.47;2.28;;;;;;;13.39;26.60;99242.88;5080723;28;20146;-67
2024/01/01 09:18:15;;;;;;;2.97;2.47;;;;;;;13.88;25.21;99251.06;5080857;27;20035;-66
2024/01/01 09:20:41;;;;;;;2.15;1.80;;;;;;;13.69;23.69;99256.16;5131813;28;20099;-66
2024/01/01 09:23:08;;;;;;;2.03;1.60;;;;;;;12.70;23.86;99251.25;5114590;28;20134;-66
2024/01/01 09:25:42;;;;;;;1.67;1.58;;;;;;;11.58;24.37;99260.00;5080524;28;20107;-66
2024/01/01 09:28:08;;;;;;;2.00;1.90;;;;;;;9.95;25.68;99275.47;5097426;27;20072;-67
2024/01/01 09:30:34;;;;;;;2.00;1.70;;;;;;;9.66;26.08;99272.41;5097434;28;20133;-68
2024/01/01 09:33:00;;;;;;;2.92;2.00;;;;;;;9.40;26.33;99271.66;5097299;28;20039;-66
2024/01/01 09:35:26;;;;;;;2.20;1.90;;;;;;;9.49;26.37;99262.72;5131565;27;20079;-66
2024/01/01 09:37:53;;;;;;;1.92;1.70;;;;;;;8.88;26.52;99262.09;5096803;27;20054;-66
2024/01/01 09:40:23;;;;;;;2.33;1.70;;;;;;;8.01;27.35;99263.84;5114390;28;20035;-70
2024/01/01 09:42:49;;;;;;;1.83;1.60;;;;;;;6.66;28.25;99267.31;5081229;28;20047;-65
2024/01/01 09:45:15;;;;;;;1.95;1.70;;;;;;;5.46;29.52;99272.28;5080537;28;20043;-66
2024/01/01 09:47:42;;;;;;;2.97;2.22;;;;;;;4.11;30.20;99263.78;5115431;28;20133;-65
2024/01/01 09:50:09;;;;;;;2.67;2.28;;;;;;;3.17;31.94;99260.97;5134096;28;20043;-65
2024/01/01 09:52:38;;;;;;;2.30;2.10;;;;;;;2.54;33.40;99267.72;5103279;28;20490;-65
2024/01/01 09:55:04;;;;;;;2.40;2.20;;;;;;;1.77;34.53;99257.03;5081092;27;20133;-66
2024/01/01 09:57:30;;;;;;;2.57;2.10;;;;;;;1.29;35.71;99258.81;5114115;28;20039;-65
2024/01/01 09:59:56;;;;;;;2.13;1.90;;;;;;;0.77;36.36;99263.41;5096989;28;20254;-65
2024/01/01 10:02:23;;;;;;;2.07;1.80;;;;;;;0.39;37.83;99257.34;5080278;27;20073;-66
2024/01/01 10:04:48;;;;;;;2.00;1.80;;;;;;;0.07;39.16;99258.66;5097662;27;20100;-65
2024/01/01 10:07:27;;;;;;;2.57;2.00;;;;;;;-0.24;40.24;99259.84;5114042;28;20039;-65
2024/01/01 10:09:53;;;;;;;3.00;2.40;;;;;;;-0.67;41.88;99260.94;5096743;28;20410;-66
2024/01/01 10:12:22;;;;;;;2.97;2.10;;;;;;;-0.96;43.29;99257.56;5097110;27;20035;-65
2024/01/01 10:14:49;;;;;;;2.07;1.87;;;;;;;-1.34;44.51;99266.91;5097231;28;20061;-65
2024/01/01 10:17:19;;;;;;;2.63;2.10;;;;;;;-1.62;46.35;99258.22;5097077;28;20080;-65
2024/01/01 10:19:56;;;;;;;2.45;2.17;;;;;;;-1.84;48.44;99243.06;5114190;27;20407;-65
2024/01/01 10:22:23;;;;;;;3.27;2.30;;;;;;;-2.03;50.06;99261.50;5083437;27;20047;-68
2024/01/01 10:24:55;;;;;;;3.40;2.47;;;;;;;-2.11;51.61;99250.69;5084305;27;20047;-66
2024/01/01 10:27:24;;;;;;;3.40;2.20;;;;;;;-2.30;51.81;99255.31;5118223;27;20142;-66
2024/01/01 10:29:50;;;;;;;3.57;2.43;;;;;;;-2.52;53.39;99254.03;5100684;27;20035;-65
2024/01/01 10:32:17;;;;;;;3.97;2.43;;;;;;;-2.64;55.17;99254.69;5117563;27;20099;-66
2024/01/01 10:34:46;;;;;;;3.27;2.60;;;;;;;-2.70;57.29;99262.81;5117709;27;20051;-66
2024/01/01 10:37:14;;;;;;;4.20;2.67;;;;;;;-2.72;58.96;99259.50;5100980;27;20221;-65
2024/01/01 10:39:41;;;;;;;3.43;2.30;;;;;;;-2.83;59.48;99260.06;5134632;27;20184;-65
2024/01/01 10:42:09;;;;;;;3.93;2.77;;;;;;;-2.82;59.55;99264.34;5117622;27;20043;-65
2024/01/01 10:44:35;;;;;;;3.83;2.67;;;;;;;-2.76;59.98;99250.16;5100348;27;20050;-65
2024/01/01 10:47:05;;;;;;;4.60;2.83;;;;;;;-2.82;58.93;99253.09;5100544;27;20184;-65
2024/01/01 10:49:31;;;;;;;2.90;2.25;;;;;;;-2.94;58.01;99253.78;5100118;27;20050;-66
2024/01/01 10:52:00;;;;;;;4.93;2.50;;;;;;;-3.00;57.59;99259.31;5117126;27;20057;-66
2024/01/01 10:54:41;;;;;;;5.60;2.63;;;;;;;-2.51;57.44;99266.09;5134412;27;20050;-65
2024/01/01 10:57:18;;;;;;;3.17;2.33;;;;;;;-1.88;55.42;99262.38;5116993;27;20099;-65
2024/01/01 10:59:49;;;;;;;3.20;2.73;;;;;;;-0.88;52.76;99265.75;5099808;27;20490;-66
2024/01/01 11:02:15;;;;;;;3.47;2.67;;;;;;;-0.11;49.12;99284.22;5117054;27;20137;-65
2024/01/01 11:04:41;;;;;;;3.10;2.80;;;;;;;0.15;46.54;99283.34;5083370;27;20043;-65
2024/01/01 11:07:06;;;;;;;3.07;2.77;;;;;;;0.61;44.52;99278.47;5099886;27;20050;-66
2024/01/01 11:09:32;;;;;;;3.20;2.90;;;;;;;1.33;43.16;99291.63;5116531;27;20051;-65
2024/01/01 11:12:01;;;;;;;2.83;2.47;;;;;;;1.86;41.77;99285.97;5100269;27;20054;-65
2024/01/01 11:14:27;;;;;;;3.97;2.80;;;;;;;2.37;40.86;99276.06;5117539;27;20176;-66
2024/01/01 11:16:54;;;;;;;5.07;2.93;;;;;;;1.94;39.22;99272.34;5117368;27;20099;-65
2024/01/01 11:19:48;;;;;;;3.07;2.40;;;;;;;1.42;40.32;99285.75;5134381;27;20043;-65
2024/01/01 11:22:20;;;;;;;4.40;2.33;;;;;;;0.70;41.13;99276.06;5100224;27;20073;-66
2024/01/01 11:24:47;;;;;;;2.40;2.20;;;;;;;-0.24;41.22;99275.50;5133571;27;20050;-65
2024/01/01 11:27:22;;;;;;;2.80;2.20;;;;;;;-0.95;42.84;99274.03;5099090;27;20039;-66